sensor_id;sensor_type;location;lat;lon;timestamp;P1;durP1;ratioP1;P2;durP2;ratioP2
12306;SDS011;6216;51.146;7.008;2024-03-08T00:01:31;13.80;;;12.07;;
12306;SDS011;6216;51.146;7.008;2024-03-08T00:06:54;18.63;;;12.73;;
12306;SDS011;6216;51.146;7.008;2024-03-08T00:12:16;16.70;;;12.43;;
12306;SDS011;6216;51.146;7.008;2024-03-08T00:17:40;20.07;;;13.00;;
12306;SDS011;6216;51.146;7.008;2024-03-08T00:23:03;15.03;;;12.27;;
12306;SDS011;6216;51.146;7.008;2024-03-08T00:28:26;16.77;;;12.50;;
12306;SDS011;6216;51.146;7.008;2024-03-08T00:33:50;17.97;;;13.37;;
12306;SDS011;6216;51.146;7.008;2024-03-08T00:39:14;17.37;;;12.20;;
12306;SDS011;6216;51.146;7.008;2024-03-08T00:44:36;17.23;;;12.43;;
12306;SDS011;6216;51.146;7.008;2024-03-08T00:50:00;19.50;;;12.50;;
12306;SDS011;6216;51.146;7.008;2024-03-08T00:55:25;17.47;;;12.93;;
12306;SDS011;6216;51.146;7.008;2024-03-08T01:00:48;14.87;;;12.30;;
12306;SDS011;6216;51.146;7.008;2024-03-08T01:06:12;17.43;;;12.47;;
12306;SDS011;6216;51.146;7.008;2024-03-08T01:11:35;17.27;;;13.07;;
12306;SDS011;6216;51.146;7.008;2024-03-08T01:16:57;17.87;;;13.77;;
12306;SDS011;6216;51.146;7.008;2024-03-08T01:22:22;16.67;;;13.50;;
12306;SDS011;6216;51.146;7.008;2024-03-08T01:27:44;18.57;;;13.33;;
12306;SDS011;6216;51.146;7.008;2024-03-08T01:33:07;17.33;;;13.57;;
12306;SDS011;6216;51.146;7.008;2024-03-08T01:38:31;17.73;;;13.70;;
12306;SDS011;6216;51.146;7.008;2024-03-08T01:43:55;17.93;;;14.77;;
12306;SDS011;6216;51.146;7.008;2024-03-08T01:49:17;18.53;;;13.80;;
12306;SDS011;6216;51.146;7.008;2024-03-08T01:54:43;17.87;;;14.07;;
12306;SDS011;6216;51.146;7.008;2024-03-08T02:00:07;19.30;;;14.43;;
12306;SDS011;6216;51.146;7.008;2024-03-08T02:05:32;24.57;;;14.67;;
12306;SDS011;6216;51.146;7.008;2024-03-08T02:10:56;18.90;;;13.97;;
12306;SDS011;6216;51.146;7.008;2024-03-08T02:16:20;18.93;;;14.17;;
12306;SDS011;6216;51.146;7.008;2024-03-08T02:21:44;19.77;;;14.57;;
12306;SDS011;6216;51.146;7.008;2024-03-08T02:27:08;23.97;;;14.77;;
12306;SDS011;6216;51.146;7.008;2024-03-08T02:32:33;20.00;;;14.43;;
12306;SDS011;6216;51.146;7.008;2024-03-08T02:37:57;19.17;;;14.07;;
12306;SDS011;6216;51.146;7.008;2024-03-08T02:43:20;20.73;;;14.30;;
12306;SDS011;6216;51.146;7.008;2024-03-08T02:48:43;19.20;;;14.77;;
12306;SDS011;6216;51.146;7.008;2024-03-08T02:54:07;17.27;;;14.33;;
12306;SDS011;6216;51.146;7.008;2024-03-08T02:59:31;21.90;;;13.73;;
12306;SDS011;6216;51.146;7.008;2024-03-08T03:04:54;19.87;;;14.40;;
12306;SDS011;6216;51.146;7.008;2024-03-08T03:10:19;19.30;;;14.00;;
12306;SDS011;6216;51.146;7.008;2024-03-08T03:15:42;16.90;;;13.07;;
12306;SDS011;6216;51.146;7.008;2024-03-08T03:21:05;18.60;;;14.50;;
12306;SDS011;6216;51.146;7.008;2024-03-08T03:26:30;16.93;;;13.90;;
12306;SDS011;6216;51.146;7.008;2024-03-08T03:31:53;18.13;;;14.03;;
12306;SDS011;6216;51.146;7.008;2024-03-08T03:37:15;21.90;;;15.07;;
12306;SDS011;6216;51.146;7.008;2024-03-08T03:42:40;16.77;;;13.77;;
12306;SDS011;6216;51.146;7.008;2024-03-08T03:48:03;24.70;;;14.40;;
12306;SDS011;6216;51.146;7.008;2024-03-08T03:53:26;19.07;;;14.03;;
12306;SDS011;6216;51.146;7.008;2024-03-08T03:58:50;20.20;;;13.63;;
12306;SDS011;6216;51.146;7.008;2024-03-08T04:04:12;18.40;;;14.07;;
12306;SDS011;6216;51.146;7.008;2024-03-08T04:09:35;19.80;;;14.13;;
12306;SDS011;6216;51.146;7.008;2024-03-08T04:14:59;19.23;;;14.43;;
12306;SDS011;6216;51.146;7.008;2024-03-08T04:20:21;16.47;;;13.43;;
12306;SDS011;6216;51.146;7.008;2024-03-08T04:25:44;18.47;;;14.27;;
12306;SDS011;6216;51.146;7.008;2024-03-08T04:31:08;20.23;;;14.30;;
12306;SDS011;6216;51.146;7.008;2024-03-08T04:36:30;21.37;;;14.80;;
12306;SDS011;6216;51.146;7.008;2024-03-08T04:41:53;17.13;;;14.07;;
12306;SDS011;6216;51.146;7.008;2024-03-08T04:47:19;18.47;;;14.33;;
12306;SDS011;6216;51.146;7.008;2024-03-08T04:52:41;19.50;;;14.70;;
12306;SDS011;6216;51.146;7.008;2024-03-08T04:58:04;20.07;;;14.87;;
12306;SDS011;6216;51.146;7.008;2024-03-08T05:03:28;20.97;;;15.37;;
12306;SDS011;6216;51.146;7.008;2024-03-08T05:08:51;24.03;;;16.07;;
12306;SDS011;6216;51.146;7.008;2024-03-08T05:14:14;20.07;;;14.97;;
12306;SDS011;6216;51.146;7.008;2024-03-08T05:19:39;21.93;;;15.17;;
12306;SDS011;6216;51.146;7.008;2024-03-08T05:25:02;22.00;;;15.03;;
12306;SDS011;6216;51.146;7.008;2024-03-08T05:30:24;19.40;;;14.57;;
12306;SDS011;6216;51.146;7.008;2024-03-08T05:35:48;20.97;;;14.47;;
12306;SDS011;6216;51.146;7.008;2024-03-08T05:41:10;22.10;;;15.27;;
12306;SDS011;6216;51.146;7.008;2024-03-08T05:46:34;21.57;;;14.70;;
12306;SDS011;6216;51.146;7.008;2024-03-08T05:51:58;22.10;;;15.03;;
12306;SDS011;6216;51.146;7.008;2024-03-08T05:57:21;21.13;;;15.33;;
12306;SDS011;6216;51.146;7.008;2024-03-08T06:02:44;22.17;;;16.00;;
12306;SDS011;6216;51.146;7.008;2024-03-08T06:08:08;23.30;;;15.97;;
12306;SDS011;6216;51.146;7.008;2024-03-08T06:13:30;20.40;;;14.67;;
12306;SDS011;6216;51.146;7.008;2024-03-08T06:18:53;21.77;;;15.20;;
12306;SDS011;6216;51.146;7.008;2024-03-08T06:24:18;20.90;;;15.47;;
12306;SDS011;6216;51.146;7.008;2024-03-08T06:29:40;21.30;;;15.10;;
12306;SDS011;6216;51.146;7.008;2024-03-08T06:35:03;24.07;;;15.93;;
12306;SDS011;6216;51.146;7.008;2024-03-08T06:40:28;20.10;;;14.63;;
12306;SDS011;6216;51.146;7.008;2024-03-08T06:45:51;27.17;;;16.67;;
12306;SDS011;6216;51.146;7.008;2024-03-08T06:51:13;21.90;;;15.20;;
12306;SDS011;6216;51.146;7.008;2024-03-08T06:56:38;24.93;;;15.03;;
12306;SDS011;6216;51.146;7.008;2024-03-08T07:02:00;20.97;;;15.23;;
12306;SDS011;6216;51.146;7.008;2024-03-08T07:07:23;20.97;;;15.17;;
12306;SDS011;6216;51.146;7.008;2024-03-08T07:12:47;20.53;;;14.87;;
12306;SDS011;6216;51.146;7.008;2024-03-08T07:18:09;19.60;;;14.83;;
12306;SDS011;6216;51.146;7.008;2024-03-08T07:23:35;17.97;;;14.13;;
12306;SDS011;6216;51.146;7.008;2024-03-08T07:29:26;21.57;;;13.60;;
12306;SDS011;6216;51.146;7.008;2024-03-08T07:34:49;20.00;;;14.10;;
12306;SDS011;6216;51.146;7.008;2024-03-08T07:40:12;17.67;;;14.30;;
12306;SDS011;6216;51.146;7.008;2024-03-08T07:45:36;18.87;;;13.07;;
12306;SDS011;6216;51.146;7.008;2024-03-08T07:50:59;17.47;;;13.70;;
12306;SDS011;6216;51.146;7.008;2024-03-08T07:56:21;19.37;;;13.43;;
12306;SDS011;6216;51.146;7.008;2024-03-08T08:01:45;16.23;;;12.30;;
12306;SDS011;6216;51.146;7.008;2024-03-08T08:07:08;18.20;;;12.97;;
12306;SDS011;6216;51.146;7.008;2024-03-08T08:12:31;15.83;;;12.17;;
12306;SDS011;6216;51.146;7.008;2024-03-08T08:17:57;16.97;;;12.83;;
12306;SDS011;6216;51.146;7.008;2024-03-08T08:23:19;15.87;;;13.07;;
12306;SDS011;6216;51.146;7.008;2024-03-08T08:28:42;15.53;;;12.77;;
12306;SDS011;6216;51.146;7.008;2024-03-08T08:34:06;16.03;;;11.63;;
12306;SDS011;6216;51.146;7.008;2024-03-08T08:39:28;15.73;;;12.07;;
12306;SDS011;6216;51.146;7.008;2024-03-08T08:44:51;16.13;;;12.97;;
12306;SDS011;6216;51.146;7.008;2024-03-08T08:50:17;16.70;;;12.87;;
12306;SDS011;6216;51.146;7.008;2024-03-08T08:55:45;16.03;;;12.43;;
12306;SDS011;6216;51.146;7.008;2024-03-08T09:01:08;15.73;;;11.77;;
12306;SDS011;6216;51.146;7.008;2024-03-08T09:06:32;14.47;;;11.47;;
12306;SDS011;6216;51.146;7.008;2024-03-08T09:11:55;16.13;;;12.83;;
12306;SDS011;6216;51.146;7.008;2024-03-08T09:17:17;17.00;;;11.13;;
12306;SDS011;6216;51.146;7.008;2024-03-08T09:22:44;13.30;;;11.43;;
12306;SDS011;6216;51.146;7.008;2024-03-08T09:28:07;14.73;;;11.23;;
12306;SDS011;6216;51.146;7.008;2024-03-08T09:33:30;15.57;;;11.73;;
12306;SDS011;6216;51.146;7.008;2024-03-08T09:38:57;13.53;;;10.77;;
12306;SDS011;6216;51.146;7.008;2024-03-08T09:44:20;12.73;;;10.60;;
12306;SDS011;6216;51.146;7.008;2024-03-08T09:49:44;11.93;;;9.57;;
12306;SDS011;6216;51.146;7.008;2024-03-08T09:55:09;13.70;;;10.60;;
12306;SDS011;6216;51.146;7.008;2024-03-08T10:00:32;14.83;;;11.20;;
12306;SDS011;6216;51.146;7.008;2024-03-08T10:05:56;10.77;;;9.37;;
12306;SDS011;6216;51.146;7.008;2024-03-08T10:11:23;12.17;;;9.70;;
12306;SDS011;6216;51.146;7.008;2024-03-08T10:16:46;10.83;;;9.73;;
12306;SDS011;6216;51.146;7.008;2024-03-08T10:22:14;12.30;;;9.97;;
12306;SDS011;6216;51.146;7.008;2024-03-08T10:27:37;12.03;;;9.40;;
12306;SDS011;6216;51.146;7.008;2024-03-08T10:33:00;9.90;;;8.90;;
12306;SDS011;6216;51.146;7.008;2024-03-08T10:38:26;9.87;;;8.30;;
12306;SDS011;6216;51.146;7.008;2024-03-08T10:44:01;9.90;;;8.23;;
12306;SDS011;6216;51.146;7.008;2024-03-08T10:49:30;10.77;;;7.87;;
12306;SDS011;6216;51.146;7.008;2024-03-08T10:54:55;10.93;;;8.20;;
12306;SDS011;6216;51.146;7.008;2024-03-08T11:00:20;8.03;;;7.13;;
12306;SDS011;6216;51.146;7.008;2024-03-08T11:05:47;10.03;;;7.33;;
12306;SDS011;6216;51.146;7.008;2024-03-08T11:11:23;8.33;;;7.13;;
12306;SDS011;6216;51.146;7.008;2024-03-08T11:16:54;7.63;;;6.83;;
12306;SDS011;6216;51.146;7.008;2024-03-08T11:22:25;9.07;;;7.43;;
12306;SDS011;6216;51.146;7.008;2024-03-08T11:27:52;7.90;;;6.77;;
12306;SDS011;6216;51.146;7.008;2024-03-08T11:33:16;8.00;;;7.20;;
12306;SDS011;6216;51.146;7.008;2024-03-08T11:38:40;9.63;;;7.37;;
12306;SDS011;6216;51.146;7.008;2024-03-08T11:44:03;7.97;;;7.17;;
12306;SDS011;6216;51.146;7.008;2024-03-08T11:49:29;8.37;;;7.47;;
12306;SDS011;6216;51.146;7.008;2024-03-08T11:54:54;8.73;;;6.57;;
12306;SDS011;6216;51.146;7.008;2024-03-08T12:00:19;8.53;;;7.40;;
12306;SDS011;6216;51.146;7.008;2024-03-08T12:05:46;7.93;;;6.43;;
12306;SDS011;6216;51.146;7.008;2024-03-08T12:11:09;7.87;;;6.73;;
12306;SDS011;6216;51.146;7.008;2024-03-08T12:16:32;9.83;;;6.57;;
12306;SDS011;6216;51.146;7.008;2024-03-08T12:21:56;12.77;;;7.57;;
12306;SDS011;6216;51.146;7.008;2024-03-08T12:27:18;9.50;;;7.17;;
12306;SDS011;6216;51.146;7.008;2024-03-08T12:32:45;10.83;;;7.13;;
12306;SDS011;6216;51.146;7.008;2024-03-08T12:38:10;7.10;;;6.07;;
12306;SDS011;6216;51.146;7.008;2024-03-08T12:43:33;9.10;;;6.60;;
12306;SDS011;6216;51.146;7.008;2024-03-08T12:48:55;7.10;;;6.40;;
12306;SDS011;6216;51.146;7.008;2024-03-08T12:54:19;8.17;;;7.27;;
12306;SDS011;6216;51.146;7.008;2024-03-08T12:59:44;7.07;;;6.37;;
12306;SDS011;6216;51.146;7.008;2024-03-08T13:05:07;7.83;;;6.23;;
12306;SDS011;6216;51.146;7.008;2024-03-08T13:10:32;7.90;;;7.10;;
12306;SDS011;6216;51.146;7.008;2024-03-08T13:15:54;7.33;;;6.60;;
12306;SDS011;6216;51.146;7.008;2024-03-08T13:21:17;8.63;;;7.47;;
12306;SDS011;6216;51.146;7.008;2024-03-08T13:26:46;7.83;;;7.03;;
12306;SDS011;6216;51.146;7.008;2024-03-08T13:32:09;9.07;;;7.97;;
12306;SDS011;6216;51.146;7.008;2024-03-08T13:37:33;8.60;;;7.80;;
12306;SDS011;6216;51.146;7.008;2024-03-08T13:42:57;7.20;;;6.50;;
12306;SDS011;6216;51.146;7.008;2024-03-08T13:48:22;10.27;;;8.10;;
12306;SDS011;6216;51.146;7.008;2024-03-08T13:53:45;9.77;;;7.77;;
12306;SDS011;6216;51.146;7.008;2024-03-08T13:59:09;9.47;;;8.30;;
12306;SDS011;6216;51.146;7.008;2024-03-08T14:04:31;8.63;;;7.70;;
12306;SDS011;6216;51.146;7.008;2024-03-08T14:09:54;9.03;;;8.10;;
12306;SDS011;6216;51.146;7.008;2024-03-08T14:15:18;8.90;;;7.87;;
12306;SDS011;6216;51.146;7.008;2024-03-08T14:20:41;8.63;;;7.47;;
12306;SDS011;6216;51.146;7.008;2024-03-08T14:26:05;8.90;;;8.00;;
12306;SDS011;6216;51.146;7.008;2024-03-08T14:31:31;10.43;;;8.60;;
12306;SDS011;6216;51.146;7.008;2024-03-08T14:36:53;13.00;;;8.67;;
12306;SDS011;6216;51.146;7.008;2024-03-08T14:42:15;10.70;;;8.77;;
12306;SDS011;6216;51.146;7.008;2024-03-08T14:47:39;9.80;;;8.53;;
12306;SDS011;6216;51.146;7.008;2024-03-08T14:53:02;10.63;;;8.40;;
12306;SDS011;6216;51.146;7.008;2024-03-08T14:58:27;11.70;;;9.23;;
12306;SDS011;6216;51.146;7.008;2024-03-08T15:03:51;9.87;;;8.73;;
12306;SDS011;6216;51.146;7.008;2024-03-08T15:09:14;10.80;;;9.20;;
12306;SDS011;6216;51.146;7.008;2024-03-08T15:14:39;11.43;;;9.90;;
12306;SDS011;6216;51.146;7.008;2024-03-08T15:20:06;11.70;;;10.27;;
12306;SDS011;6216;51.146;7.008;2024-03-08T15:25:36;9.87;;;8.87;;
12306;SDS011;6216;51.146;7.008;2024-03-08T15:31:00;10.37;;;9.03;;
12306;SDS011;6216;51.146;7.008;2024-03-08T15:36:28;9.70;;;8.57;;
12306;SDS011;6216;51.146;7.008;2024-03-08T15:41:52;10.97;;;9.27;;
12306;SDS011;6216;51.146;7.008;2024-03-08T15:47:16;10.17;;;8.87;;
12306;SDS011;6216;51.146;7.008;2024-03-08T15:52:42;11.13;;;9.73;;
12306;SDS011;6216;51.146;7.008;2024-03-08T15:58:05;11.27;;;8.90;;
12306;SDS011;6216;51.146;7.008;2024-03-08T16:03:32;11.20;;;8.80;;
12306;SDS011;6216;51.146;7.008;2024-03-08T16:08:56;10.47;;;8.70;;
12306;SDS011;6216;51.146;7.008;2024-03-08T16:14:20;12.43;;;9.07;;
12306;SDS011;6216;51.146;7.008;2024-03-08T16:19:43;11.53;;;9.23;;
12306;SDS011;6216;51.146;7.008;2024-03-08T16:25:07;10.77;;;8.03;;
12306;SDS011;6216;51.146;7.008;2024-03-08T16:30:33;9.80;;;8.20;;
12306;SDS011;6216;51.146;7.008;2024-03-08T16:35:55;14.90;;;9.00;;
12306;SDS011;6216;51.146;7.008;2024-03-08T16:41:19;11.33;;;8.10;;
12306;SDS011;6216;51.146;7.008;2024-03-08T16:46:42;9.17;;;8.00;;
12306;SDS011;6216;51.146;7.008;2024-03-08T16:52:05;10.57;;;8.40;;
12306;SDS011;6216;51.146;7.008;2024-03-08T16:57:29;9.57;;;7.87;;
12306;SDS011;6216;51.146;7.008;2024-03-08T17:02:53;12.03;;;8.43;;
12306;SDS011;6216;51.146;7.008;2024-03-08T17:08:15;10.10;;;7.97;;
12306;SDS011;6216;51.146;7.008;2024-03-08T17:13:40;9.00;;;7.57;;
12306;SDS011;6216;51.146;7.008;2024-03-08T17:19:04;12.93;;;8.03;;
12306;SDS011;6216;51.146;7.008;2024-03-08T17:24:27;8.73;;;7.47;;
12306;SDS011;6216;51.146;7.008;2024-03-08T17:29:52;8.97;;;7.73;;
12306;SDS011;6216;51.146;7.008;2024-03-08T17:35:16;10.83;;;8.47;;
12306;SDS011;6216;51.146;7.008;2024-03-08T17:40:40;9.77;;;8.03;;
12306;SDS011;6216;51.146;7.008;2024-03-08T17:46:06;10.93;;;8.67;;
12306;SDS011;6216;51.146;7.008;2024-03-08T17:51:29;11.87;;;8.67;;
12306;SDS011;6216;51.146;7.008;2024-03-08T17:56:51;12.60;;;8.97;;
12306;SDS011;6216;51.146;7.008;2024-03-08T18:02:17;11.93;;;8.37;;
12306;SDS011;6216;51.146;7.008;2024-03-08T18:07:41;13.20;;;8.73;;
12306;SDS011;6216;51.146;7.008;2024-03-08T18:13:04;12.37;;;8.27;;
12306;SDS011;6216;51.146;7.008;2024-03-08T18:18:34;14.60;;;8.10;;
12306;SDS011;6216;51.146;7.008;2024-03-08T18:23:58;14.47;;;8.37;;
12306;SDS011;6216;51.146;7.008;2024-03-08T18:29:22;10.90;;;8.07;;
12306;SDS011;6216;51.146;7.008;2024-03-08T18:34:45;13.67;;;8.57;;
12306;SDS011;6216;51.146;7.008;2024-03-08T18:40:08;11.10;;;8.10;;
12306;SDS011;6216;51.146;7.008;2024-03-08T18:45:33;11.67;;;8.43;;
12306;SDS011;6216;51.146;7.008;2024-03-08T18:50:57;9.40;;;7.73;;
12306;SDS011;6216;51.146;7.008;2024-03-08T18:56:22;12.13;;;9.07;;
12306;SDS011;6216;51.146;7.008;2024-03-08T19:01:44;14.13;;;9.87;;
12306;SDS011;6216;51.146;7.008;2024-03-08T19:07:10;13.33;;;9.40;;
12306;SDS011;6216;51.146;7.008;2024-03-08T19:12:33;12.63;;;8.80;;
12306;SDS011;6216;51.146;7.008;2024-03-08T19:17:55;12.83;;;9.90;;
12306;SDS011;6216;51.146;7.008;2024-03-08T19:23:19;13.10;;;9.97;;
12306;SDS011;6216;51.146;7.008;2024-03-08T19:28:42;13.47;;;10.03;;
12306;SDS011;6216;51.146;7.008;2024-03-08T19:34:06;13.97;;;10.60;;
12306;SDS011;6216;51.146;7.008;2024-03-08T19:39:30;15.40;;;10.70;;
12306;SDS011;6216;51.146;7.008;2024-03-08T19:44:53;15.50;;;10.03;;
12306;SDS011;6216;51.146;7.008;2024-03-08T19:50:16;13.37;;;10.43;;
12306;SDS011;6216;51.146;7.008;2024-03-08T19:55:40;14.20;;;10.03;;
12306;SDS011;6216;51.146;7.008;2024-03-08T20:01:03;15.80;;;11.30;;
12306;SDS011;6216;51.146;7.008;2024-03-08T20:06:26;16.07;;;10.47;;
12306;SDS011;6216;51.146;7.008;2024-03-08T20:11:50;17.43;;;11.03;;
12306;SDS011;6216;51.146;7.008;2024-03-08T20:17:16;15.87;;;10.83;;
12306;SDS011;6216;51.146;7.008;2024-03-08T20:22:39;17.03;;;10.90;;
12306;SDS011;6216;51.146;7.008;2024-03-08T20:28:04;15.10;;;10.73;;
12306;SDS011;6216;51.146;7.008;2024-03-08T20:33:27;14.67;;;10.60;;
12306;SDS011;6216;51.146;7.008;2024-03-08T20:38:53;15.60;;;10.67;;
12306;SDS011;6216;51.146;7.008;2024-03-08T20:44:17;15.87;;;11.00;;
12306;SDS011;6216;51.146;7.008;2024-03-08T20:49:39;15.57;;;10.83;;
12306;SDS011;6216;51.146;7.008;2024-03-08T20:55:02;15.53;;;10.40;;
12306;SDS011;6216;51.146;7.008;2024-03-08T21:00:31;16.07;;;11.93;;
12306;SDS011;6216;51.146;7.008;2024-03-08T21:06:09;16.13;;;10.20;;
12306;SDS011;6216;51.146;7.008;2024-03-08T21:11:31;13.97;;;10.83;;
12306;SDS011;6216;51.146;7.008;2024-03-08T21:16:56;15.17;;;10.97;;
12306;SDS011;6216;51.146;7.008;2024-03-08T21:22:19;19.23;;;11.03;;
12306;SDS011;6216;51.146;7.008;2024-03-08T21:27:43;15.97;;;11.50;;
12306;SDS011;6216;51.146;7.008;2024-03-08T21:33:07;19.67;;;13.23;;
12306;SDS011;6216;51.146;7.008;2024-03-08T21:38:33;18.07;;;12.13;;
12306;SDS011;6216;51.146;7.008;2024-03-08T21:43:55;14.10;;;10.90;;
12306;SDS011;6216;51.146;7.008;2024-03-08T21:49:19;17.60;;;11.87;;
12306;SDS011;6216;51.146;7.008;2024-03-08T21:54:42;15.80;;;11.27;;
12306;SDS011;6216;51.146;7.008;2024-03-08T22:00:05;15.50;;;11.40;;
12306;SDS011;6216;51.146;7.008;2024-03-08T22:05:33;13.20;;;10.17;;
12306;SDS011;6216;51.146;7.008;2024-03-08T22:10:57;15.43;;;11.33;;
12306;SDS011;6216;51.146;7.008;2024-03-08T22:16:20;15.67;;;11.07;;
12306;SDS011;6216;51.146;7.008;2024-03-08T22:21:45;14.40;;;10.40;;
12306;SDS011;6216;51.146;7.008;2024-03-08T22:27:08;13.03;;;10.07;;
12306;SDS011;6216;51.146;7.008;2024-03-08T22:32:30;14.33;;;9.80;;
12306;SDS011;6216;51.146;7.008;2024-03-08T22:37:54;16.67;;;10.90;;
12306;SDS011;6216;51.146;7.008;2024-03-08T22:43:17;15.50;;;10.17;;
12306;SDS011;6216;51.146;7.008;2024-03-08T22:48:40;13.37;;;10.93;;
12306;SDS011;6216;51.146;7.008;2024-03-08T22:54:04;13.33;;;9.30;;
12306;SDS011;6216;51.146;7.008;2024-03-08T22:59:27;15.33;;;10.03;;
12306;SDS011;6216;51.146;7.008;2024-03-08T23:04:49;15.33;;;10.17;;
12306;SDS011;6216;51.146;7.008;2024-03-08T23:10:14;14.77;;;9.60;;
12306;SDS011;6216;51.146;7.008;2024-03-08T23:15:37;12.37;;;9.40;;
12306;SDS011;6216;51.146;7.008;2024-03-08T23:21:02;11.53;;;9.53;;
12306;SDS011;6216;51.146;7.008;2024-03-08T23:26:26;11.30;;;9.27;;
12306;SDS011;6216;51.146;7.008;2024-03-08T23:31:49;14.17;;;9.37;;
12306;SDS011;6216;51.146;7.008;2024-03-08T23:37:11;10.97;;;8.77;;
12306;SDS011;6216;51.146;7.008;2024-03-08T23:42:35;12.40;;;9.57;;
12306;SDS011;6216;51.146;7.008;2024-03-08T23:47:58;11.03;;;8.83;;
12306;SDS011;6216;51.146;7.008;2024-03-08T23:53:21;11.57;;;9.20;;
12306;SDS011;6216;51.146;7.008;2024-03-08T23:58:45;15.57;;;9.43;;
